Latest Coastal Weather Observations for Norfolk Island

IDN60701

Issued at 12:21 am EST Monday 20 April 2015 (issued every 10 minutes, with the page automatically refreshed every 10 minutes)

About coastal observations | Map of coastal stations | Coastal observations for NSW | Marine services | Other Formats
Station Details ID: 200288 Name: NORFOLK ISLAND AERO Lat: -29.04 Lon: 167.94 Height: 111.73 m
Data from the previous 72 hours. | See also: Recent months at Norfolk Island
Date/Time
EST
Temp

°C
Wind Pressure Rain
since 9am
mm
Weather Cloud Vis
km
Sea
Height
m
Swell
Dir
 
Speed
knots
Gust
knots
hPa Trend Height
m
Period
s
Dir
20/12:00am 17.7 ESE 5 7 1022.9 - 0.0 - Partly cloudy 10 - - - -
 
Date/Time
EST
Temp

°C
Wind Pressure Rain
since 9am
mm
Weather Cloud Vis
km
Sea
Height
m
Swell
Dir
 
Speed
knots
Gust
knots
hPa Trend Height
m
Period
s
Dir
19/11:30pm 17.8 ESE 5 7 1023.3 - 0.0 - Partly cloudy 10 - - - -
19/11:00pm 17.8 E 4 5 1023.7 - 0.0 - Partly cloudy 10 - - - -
19/10:30pm 17.9 ESE 3 4 1023.7 - 0.0 - Partly cloudy 10 - - - -
19/10:00pm 18.1 ESE 4 6 1023.9 - 0.0 - Mostly clear 10 - - - -
19/09:30pm 17.8 E 5 6 1023.8 - 0.0 - Mostly clear 10 - - - -
19/09:00pm 18.1 E 5 7 1024.0 - 0.0 - Mostly clear 10 - - - -
19/08:30pm 18.4 E 6 9 1024.3 - 0.0 - Mostly clear 10 - - - -
19/08:00pm 19.0 ESE 5 8 1024.1 - 0.0 - Mostly clear 10 - - - -
19/07:30pm 19.1 E 5 7 1023.6 S 0.0 Fine Partly cloudy 35 - - - -
19/07:00pm 19.8 ESE 7 9 1023.9 - 0.0 - Mostly clear 10 - - - -
19/06:30pm 19.5 E 5 7 1023.7 - 0.0 - Mostly cloudy 10 - - - -
19/06:00pm 19.3 E 4 5 1023.5 - 0.0 - Mostly cloudy 10 - - - -
19/05:30pm 19.5 E 4 6 1023.5 - 0.0 - Mostly cloudy 10 - - - -
19/05:00pm 19.3 E 5 6 1023.1 - 0.0 - Mostly cloudy 10 - - - -
19/04:30pm 19.4 E 6 7 1022.5 R 0.0 Fine Mostly cloudy 30 - - - -
19/04:00pm 20.4 ESE 6 9 1022.8 - 0.0 - Partly cloudy 10 - - - -
19/03:30pm 21.1 E 8 12 1022.7 - 0.0 - Partly cloudy 10 - - - -
19/03:00pm 21.1 E 10 15 1022.5 - 0.0 - Partly cloudy 10 - - - -
19/02:30pm 22.1 ESE 8 12 1022.2 - 0.0 - Partly cloudy 10 - - - -
19/02:00pm 22.2 SE 9 14 1021.9 - 0.0 - Partly cloudy 10 - - - -
19/01:30pm 22.4 SE 9 13 1021.8 R 0.0 Fine Mostly clear 30 - - - -
19/01:00pm 22.5 ESE 9 14 1022.3 - 0.0 - Mostly clear 10 - - - -
19/12:30pm 21.9 SE 10 14 1022.6 - 0.0 - Mostly clear 10 - - - -
19/12:00pm 22.2 SE 8 12 1022.7 - 0.0 - Mostly clear 10 - - - -
19/11:30am 22.5 SE 8 13 1022.8 - 0.0 - Mostly clear 10 - - - -
19/11:00am 22.3 SE 8 14 1023.3 - 0.0 - Mostly clear 10 - - - -
19/10:30am 22.3 E 8 12 1023.1 F 0.0 Fine Mostly clear 35 - - - -
19/10:00am 22.8 ESE 9 13 1023.9 - 0.0 - Mostly clear 10 - - - -
19/09:30am 22.1 ESE 9 13 1024.2 - 0.0 - Mostly clear 10 - - - -
19/09:00am 22.3 SSE 7 10 1024.3 - 0.0 - Mostly clear 10 - - - -
19/08:30am 22.3 SSE 5 8 1024.4 - 0.0 - Mostly clear 10 - - - -
19/08:00am 21.5 SW 4 7 1024.5 - 0.0 - Mostly clear 10 - - - -
19/07:30am 20.9 SSW 2 5 1024.3 F 0.0 Fine Mostly clear 40 - - - -
19/07:00am 20.8 SW 4 6 1024.6 - 0.0 - - 10 - - - -
19/06:30am 20.6 CALM 0 0 1024.3 - 0.0 - Mostly clear 10 - - - -
19/06:00am 19.2 CALM 0 0 1024.1 - 0.0 - Mostly clear 10 - - - -
19/05:30am 17.7 CALM 0 0 1024.0 - 0.0 - Partly cloudy 10 - - - -
19/05:00am 17.3 CALM 0 0 1023.7 - 0.0 - - 10 - - - -
19/04:30am 17.6 CALM 0 0 1023.2 - 0.0 - - 10 - - - -
19/04:00am 17.3 CALM 0 0 1023.5 - 0.0 - Partly cloudy 10 - - - -
19/03:30am 17.6 CALM 0 0 1023.4 - 0.0 - Partly cloudy 10 - - - -
19/03:00am 17.1 CALM 0 0 1023.5 - 0.0 - Partly cloudy 10 - - - -
19/02:30am 17.5 CALM 0 0 1023.5 - 0.0 - Partly cloudy 10 - - - -
19/02:00am 17.2 N 2 4 1023.6 - 0.0 - - 10 - - - -
19/01:30am 17.8 CALM 0 0 1023.4 - 0.0 - Partly cloudy 10 - - - -
19/01:00am 17.7 CALM 0 0 1024.2 - 0.0 - - 10 - - - -
19/12:30am 17.4 CALM 0 0 1024.5 - 0.0 - - 10 - - - -
19/12:00am 17.7 CALM 0 0 1024.8 - 0.0 - - 10 - - - -
 
Date/Time
EST
Temp

°C
Wind Pressure Rain
since 9am
mm
Weather Cloud Vis
km
Sea
Height
m
Swell
Dir
 
Speed
knots
Gust
knots
hPa Trend Height
m
Period
s
Dir
18/11:30pm 17.7 CALM 0 0 1024.8 - 0.0 - - 10 - - - -
18/11:00pm 17.7 CALM 0 0 1024.9 - 0.0 - - 10 - - - -
18/10:30pm 17.8 CALM 0 0 1024.6 - 0.0 - - 10 - - - -
18/10:00pm 17.6 CALM 0 0 1025.3 - 0.0 - Mostly clear 10 - - - -
18/09:30pm 17.4 CALM 0 0 1025.4 - 0.0 - Mostly clear 10 - - - -
18/09:00pm 17.8 E 2 4 1025.4 - 0.0 - Mostly clear 10 - - - -
18/08:30pm 18.5 E 4 5 1025.6 - 0.0 - Mostly clear 10 - - - -
18/08:00pm 18.0 ESE 4 5 1025.5 - 0.0 - Mostly clear 10 - - - -
18/07:30pm 17.9 E 2 4 1025.1 R 0.0 Fine Mostly clear 40 - - - -
18/07:00pm 17.8 CALM 0 0 1025.2 - 0.0 - Mostly clear 10 - - - -
18/06:30pm 17.2 E 1 4 1025.0 - 0.0 - Mostly clear 10 - - - -
18/06:00pm 17.9 ESE 1 3 1024.7 - 0.0 - Mostly clear 10 - - - -
18/05:30pm 18.0 ESE 1 4 1024.5 - 0.0 - Mostly clear 10 - - - -
18/05:00pm 18.1 CALM 0 0 1024.3 - 0.0 - Mostly clear 10 - - - -
18/04:30pm 19.2 ESE 3 4 1023.6 F 0.0 Fine Partly cloudy 40 - - - -
18/04:00pm 19.6 ESE 5 6 1024.0 - 0.0 - Mostly clear 10 - - - -
18/03:30pm 20.6 SE 5 7 1023.9 - 0.0 - Mostly clear 10 - - - -
18/03:00pm 21.0 SSE 6 8 1023.9 - 0.0 - Mostly clear 10 - - - -
18/02:30pm 21.3 SE 5 8 1023.9 - 0.0 - Mostly clear 10 - - - -
18/02:00pm 21.3 SSE 5 8 1024.0 - 0.0 - - 10 - - - -
18/01:30pm 21.8 SE 7 10 1023.8 F 0.0 Fine Mostly clear 40 - - - -
18/01:00pm 22.0 SSE 7 12 1024.3 - 0.0 - Mostly clear 10 - - - -
18/12:30pm 21.7 SSE 7 10 1024.7 - 0.0 - Partly cloudy 10 - - - -
18/12:00pm 21.6 SSE 7 10 1024.8 - 0.0 - Mostly clear 10 - - - -
18/11:30am 21.8 SSE 6 9 1025.3 - 0.0 - Mostly clear 10 - - - -
18/11:00am 21.8 SSE 7 10 1025.9 - 0.0 - Mostly clear 10 - - - -
18/10:30am 21.7 SE 7 13 1025.9 F 0.0 Fine Mostly clear 40 - - - -
18/10:00am 21.8 SE 7 10 1026.4 - 0.0 - Mostly clear 10 - - - -
18/09:30am 21.3 S 7 10 1026.4 - 0.0 - Mostly clear 10 - - - -
18/09:00am 21.6 SSE 6 9 1026.6 - 0.0 - Mostly clear 10 - - - -
18/08:30am 21.4 SSE 6 8 1026.3 - 0.0 - Mostly clear 10 - - - -
18/08:00am 21.3 ESE 6 9 1026.2 - 0.0 - Mostly clear 10 - - - -
18/07:30am 21.1 ESE 5 8 1026.0 R 0.0 Fine Mostly clear 40 - - - -
18/07:00am 20.7 SE 4 6 1025.9 - 0.0 - Mostly clear 10 - - - -
18/06:30am 20.6 CALM 0 0 1025.6 - 0.0 - Mostly clear 10 - - - -
18/06:00am 18.7 SE 1 3 1025.4 - 0.0 - Mostly clear 10 - - - -
18/05:30am 17.7 SE 4 4 1025.1 - 0.0 - - 10 - - - -
18/05:00am 17.2 SE 4 5 1025.0 - 0.0 - - 10 - - - -
18/04:30am 16.7 CALM 0 0 1024.3 - 0.0 - - 10 - - - -
18/04:00am 16.4 CALM 0 0 1024.5 - 0.0 - - 10 - - - -
18/03:30am 17.1 E 1 4 1024.5 - 0.0 - - 10 - - - -
18/03:00am 17.1 CALM 0 0 1024.5 - 0.0 - - 10 - - - -
18/02:30am 17.3 CALM 0 0 1024.5 - 0.0 - - 10 - - - -
18/02:00am 17.0 CALM 0 0 1024.4 - 0.0 - - 10 - - - -
18/01:30am 17.4 CALM 0 0 1024.3 - 0.0 - - 10 - - - -
18/01:00am 17.0 E 3 4 1024.9 - 0.0 - - 10 - - - -
18/12:30am 17.1 E 4 4 1025.1 - 0.0 - Partly cloudy 10 - - - -
18/12:00am 17.2 E 4 5 1025.4 - 0.0 - - 10 - - - -
 
Date/Time
EST
Temp

°C
Wind Pressure Rain
since 9am
mm
Weather Cloud Vis
km
Sea
Height
m
Swell
Dir
 
Speed
knots
Gust
knots
hPa Trend Height
m
Period
s
Dir
17/11:30pm 17.3 E 4 4 1025.4 - 0.0 - - 10 - - - -
17/11:00pm 17.4 E 4 5 1025.4 - 0.0 - - 10 - - - -
17/10:30pm 17.5 E 4 5 1025.4 - 0.0 - - 10 - - - -
17/10:00pm 18.1 ESE 5 6 1026.0 - 0.0 - - 10 - - - -
17/09:30pm 17.2 E 5 5 1026.0 - 0.0 - Partly cloudy 10 - - - -
17/09:00pm 17.0 E 5 6 1026.2 - 0.0 - Mostly clear 10 - - - -
17/08:30pm 17.1 E 5 5 1025.9 - 0.0 - Mostly clear 10 - - - -
17/08:00pm 17.3 E 4 5 1025.9 - 0.0 - - 10 - - - -
17/07:30pm 17.2 E 5 7 1025.3 S 0.0 Fine Clear 40 - - - -
17/07:00pm 17.6 E 6 8 1025.5 - 0.0 - Mostly clear 10 - - - -
17/06:30pm 17.5 E 5 7 1025.2 - 0.0 - Mostly clear 10 - - - -
17/06:00pm 18.3 ESE 5 8 1025.0 - 0.0 - Mostly clear 10 - - - -
17/05:30pm 18.3 ESE 6 8 1024.7 - 0.0 - Mostly clear 10 - - - -
17/05:00pm 18.6 ESE 6 8 1024.7 - 0.0 - Mostly clear 10 - - - -
17/04:30pm 18.8 ESE 6 8 1024.1 R 0.0 Fine Mostly clear 35 - - - -
17/04:00pm 19.9 SE 7 12 1024.4 - 0.0 - Mostly clear 10 - - - -
17/03:30pm 20.5 SE 8 13 1024.2 - 0.0 - Mostly clear 10 - - - -
17/03:00pm 20.6 SE 9 13 1024.0 - 0.0 - Mostly clear 10 - - - -
17/02:30pm 21.5 ESE 8 11 1023.8 - 0.0 - Mostly clear 10 - - - -
17/02:00pm 20.6 SE 9 13 1023.7 - 0.0 - Partly cloudy 10 - - - -
17/01:30pm 21.0 E 7 11 1023.5 F 0.0 Fine Partly cloudy 40 - - - -
17/01:00pm 21.3 SE 8 12 1024.1 - 0.0 - Mostly clear 10 - - - -
17/12:30pm 21.9 ESE 7 12 1024.3 - 0.0 - Mostly clear 10 - - - -
17/12:00pm 22.3 SE 8 12 1024.7 - 0.0 - Mostly clear 10 - - - -
17/11:30am 22.5 ESE 8 13 1025.2 - 0.0 - Mostly clear 10 - - - -
17/11:00am 22.3 E 8 11 1025.6 - 0.0 - Mostly clear 10 - - - -
17/10:30am 21.4 ESE 8 13 1025.7 F 0.0 Fine Mostly clear 40 - - - -
17/10:00am 21.2 SE 9 13 1026.3 - 0.0 - Mostly clear 10 - - - -
17/09:30am 21.8 E 9 14 1026.3 - 0.0 - Mostly clear 10 - - - -
17/09:00am 21.8 E 8 13 1026.3 - 0.0 - Mostly clear 10 - - - -
17/08:30am 21.8 E 9 13 1026.3 - 0.0 - Mostly clear 10 - - - -
17/08:00am 21.5 ENE 10 14 1026.2 - 0.0 - Mostly clear 10 - - - -
17/07:30am 20.8 E 9 14 1025.8 R 1.0 Fine Mostly clear 40 - - - -
17/07:00am 19.5 E 9 13 1025.9 - 1.0 - Mostly clear 10 - - - -
17/06:30am 19.1 ESE 6 10 1025.6 - 1.0 - Mostly clear 10 - - - -
17/06:00am 18.4 E 6 9 1025.2 - 1.0 - Mostly clear 10 - - - -
17/05:30am 19.0 ESE 7 10 1024.7 - 0.2 - Partly cloudy 10 - - - -
17/05:00am 18.3 E 7 10 1024.4 - 0.2 - Partly cloudy 10 - - - -
17/04:30am 17.6 E 6 9 1023.7 - 0.2 - Mostly cloudy 10 - - - -
17/04:00am 16.7 E 5 7 1024.0 - 0.2 - Partly cloudy 10 - - - -
17/03:30am 16.5 E 5 6 1023.7 - 0.2 - - 10 - - - -
17/03:00am 17.3 ENE 5 6 1023.5 - 0.2 - - 10 - - - -
17/02:30am 17.6 E 5 7 1023.8 - 0.2 - - 10 - - - -
17/02:00am 18.0 E 6 7 1024.0 - 0.2 - Partly cloudy 10 - - - -
17/01:30am 18.4 E 6 8 1023.8 - 0.2 - Mostly cloudy 10 - - - -
17/01:00am 18.6 E 6 8 1024.7 - 0.2 - Cloudy 10 - - - -
17/12:30am 18.3 E 5 6 1025.2 - 0.2 - Cloudy 10 - - - -
17/12:00am 18.0 E 5 7 1025.2 - 0.2 - Cloudy 10 - - - -
 
Date/Time
EST
Temp

°C
Wind Pressure Rain
since 9am
mm
Weather Cloud Vis
km
Sea
Height
m
Swell
Dir
 
Speed
knots
Gust
knots
hPa Trend Height
m
Period
s
Dir
16/11:30pm 17.6 E 5 6 1025.2 - 0.2 - Partly cloudy 10 - - - -
16/11:00pm 18.2 E 7 9 1025.3 - 0.2 - Cloudy 10 - - - -

Other Formats:

Comma delimited format used in spreadsheet applications
http://www.bom.gov.au/fwo/IDN60701/IDN60701.94996.axf

JavaScript Object Notation format (JSON) in row-major order
http://www.bom.gov.au/fwo/IDN60701/IDN60701.94996.json